Time;durP1;ratioP1;P1;durP2;ratioP2;P2;SDS_P1;SDS_P2;PMS_P1;PMS_P2;Temp;Humidity;BMP_temperature;BMP_pressure;BME280_temperature;BME280_humidity;BME280_pressure;Samples;Min_cycle;Max_cycle;Signal;HPM_P1;HPM_P2
2021/07/23 00:01:28;;;;;;;11.33;5.00;;;;;;;-145.18;100.00;60484.78;5081860;28;20357;-67
2021/07/23 00:03:54;;;;;;;10.00;5.90;;;;;;;-145.18;100.00;60484.78;5083638;28;20024;-67
2021/07/23 00:06:20;;;;;;;13.30;5.10;;;;;;;-145.18;100.00;60484.78;5078994;28;20053;-67
2021/07/23 00:08:45;;;;;;;9.53;5.10;;;;;;;-145.18;100.00;60484.78;5084346;28;20043;-67
2021/07/23 00:11:10;;;;;;;10.40;5.30;;;;;;;-145.18;100.00;60484.78;5082098;28;20438;-67
2021/07/23 00:13:36;;;;;;;9.00;5.00;;;;;;;-145.18;100.00;60484.78;5085420;28;20035;-67
2021/07/23 00:16:02;;;;;;;9.53;4.43;;;;;;;-145.18;100.00;60484.78;5082534;28;20040;-67
2021/07/23 00:18:33;;;;;;;8.63;5.03;;;;;;;-145.18;100.00;60484.78;5084684;28;20055;-67
2021/07/23 00:20:58;;;;;;;10.97;5.80;;;;;;;-145.18;100.00;60484.78;5082029;28;20454;-67
2021/07/23 00:23:24;;;;;;;10.20;5.37;;;;;;;-145.18;100.00;60484.78;5082347;28;20032;-67
2021/07/23 00:25:49;;;;;;;13.17;5.80;;;;;;;-145.18;100.00;60484.78;5082425;28;20039;-67
2021/07/23 00:28:15;;;;;;;12.30;5.87;;;;;;;-145.18;100.00;60484.78;5082559;28;20039;-67
2021/07/23 00:30:40;;;;;;;14.00;5.67;;;;;;;-145.18;100.00;60484.78;5085832;28;20020;-67
2021/07/23 00:33:06;;;;;;;9.33;4.97;;;;;;;-145.18;100.00;60484.78;5082272;28;20035;-67
2021/07/23 00:35:32;;;;;;;9.53;4.73;;;;;;;-145.18;100.00;60484.78;5081960;28;20031;-67
2021/07/23 00:37:57;;;;;;;10.10;4.73;;;;;;;-145.18;100.00;60484.78;5092916;28;20031;-67
2021/07/23 00:40:24;;;;;;;11.10;5.87;;;;;;;-145.18;100.00;60484.78;5083305;28;20039;-67
2021/07/23 00:42:50;;;;;;;12.87;5.33;;;;;;;-145.18;100.00;60484.78;5087355;28;20032;-67
2021/07/23 00:45:17;;;;;;;11.97;5.17;;;;;;;-145.18;100.00;60484.78;5085806;28;20024;-68
2021/07/23 00:47:46;;;;;;;13.50;5.37;;;;;;;-145.18;100.00;60484.78;5090444;28;20036;-67
2021/07/23 00:50:14;;;;;;;11.93;5.17;;;;;;;-145.18;100.00;60484.78;5085648;28;20027;-67
2021/07/23 00:52:40;;;;;;;12.03;5.13;;;;;;;-145.18;100.00;60484.78;5093747;28;20023;-67
2021/07/23 00:55:07;;;;;;;9.10;4.80;;;;;;;-145.18;100.00;60484.78;5086200;28;20032;-67
2021/07/23 00:57:34;;;;;;;9.70;4.77;;;;;;;-145.18;100.00;60484.78;5093206;28;20111;-67
2021/07/23 01:00:01;;;;;;;15.07;4.63;;;;;;;-145.18;100.00;60484.78;5085426;28;20090;-67
2021/07/23 01:02:27;;;;;;;11.57;4.67;;;;;;;-145.18;100.00;60484.78;5091563;28;20028;-67
2021/07/23 01:04:52;;;;;;;12.97;5.67;;;;;;;-145.18;100.00;60484.78;5082677;28;20032;-67
2021/07/23 01:07:18;;;;;;;12.37;5.20;;;;;;;-145.18;100.00;60484.78;5087528;28;20039;-67
2021/07/23 01:09:43;;;;;;;11.97;5.77;;;;;;;-145.18;100.00;60484.78;5085313;28;20022;-67
2021/07/23 01:12:10;;;;;;;12.50;5.37;;;;;;;-145.18;100.00;60484.78;5085690;28;20031;-67
2021/07/23 01:14:37;;;;;;;15.23;6.10;;;;;;;-145.18;100.00;60484.78;5085134;28;20644;-67
2021/07/23 01:17:03;;;;;;;13.93;6.00;;;;;;;-145.18;100.00;60484.78;5087679;28;20024;-67
2021/07/23 01:19:37;;;;;;;12.77;5.53;;;;;;;-145.18;100.00;60484.78;5085126;28;20389;-67
2021/07/23 01:22:06;;;;;;;10.67;5.37;;;;;;;-145.18;100.00;60484.78;5086456;28;20474;-67
2021/07/23 01:24:33;;;;;;;12.83;6.10;;;;;;;-145.18;100.00;60484.78;5085162;28;20036;-67
2021/07/23 01:26:58;;;;;;;12.97;5.67;;;;;;;-145.18;100.00;60484.78;5087700;28;20684;-67
2021/07/23 01:29:24;;;;;;;14.10;6.00;;;;;;;-145.18;100.00;60484.78;5085404;28;20028;-67
2021/07/23 01:31:50;;;;;;;12.77;6.00;;;;;;;-145.18;100.00;60484.78;5086390;28;20028;-67
2021/07/23 01:34:15;;;;;;;12.20;5.80;;;;;;;-145.18;100.00;60484.78;5088859;28;20036;-67
2021/07/23 01:36:41;;;;;;;13.73;6.00;;;;;;;-145.18;100.00;60484.78;5085050;28;20520;-67
2021/07/23 01:39:08;;;;;;;12.77;5.80;;;;;;;-145.18;100.00;60484.78;5090014;28;20031;-67
2021/07/23 01:41:33;;;;;;;12.63;4.73;;;;;;;-145.18;100.00;60484.78;5085001;28;20024;-67
2021/07/23 01:43:59;;;;;;;12.50;6.10;;;;;;;-145.18;100.00;60484.78;5084741;28;20059;-67
2021/07/23 01:46:24;;;;;;;12.47;5.80;;;;;;;-145.18;100.00;60484.78;5084606;28;20567;-67
2021/07/23 01:48:50;;;;;;;10.00;5.17;;;;;;;-145.18;100.00;60484.78;5093202;28;20024;-67
2021/07/23 01:51:15;;;;;;;10.33;5.20;;;;;;;-145.18;100.00;60484.78;5084666;28;20038;-67
2021/07/23 01:53:41;;;;;;;11.83;5.80;;;;;;;-145.18;100.00;60484.78;5087944;28;20036;-67
2021/07/23 01:56:06;;;;;;;19.57;6.30;;;;;;;-145.18;100.00;60484.78;5084438;28;20031;-67
2021/07/23 01:58:34;;;;;;;14.17;5.53;;;;;;;-145.18;100.00;60484.78;5089221;28;20028;-67
2021/07/23 02:01:00;;;;;;;13.40;5.87;;;;;;;-145.18;100.00;60484.78;5084183;28;20081;-67
2021/07/23 02:03:25;;;;;;;12.27;4.97;;;;;;;-145.18;100.00;60484.78;5085723;28;20040;-67
2021/07/23 02:05:51;;;;;;;31.50;7.60;;;;;;;-145.18;100.00;60484.78;5079472;28;20035;-67
2021/07/23 02:08:16;;;;;;;15.40;6.23;;;;;;;-145.18;100.00;60484.78;5088949;28;20036;-67
2021/07/23 02:10:42;;;;;;;14.73;6.07;;;;;;;-145.18;100.00;60484.78;5081429;28;20126;-67
2021/07/23 02:13:07;;;;;;;16.30;6.67;;;;;;;-145.18;100.00;60484.78;5086727;28;20024;-67
2021/07/23 02:15:33;;;;;;;12.60;6.03;;;;;;;-145.18;100.00;60484.78;5083893;28;20098;-67
2021/07/23 02:17:58;;;;;;;15.10;5.87;;;;;;;-145.18;100.00;60484.78;5085228;28;20032;-68
2021/07/23 02:20:23;;;;;;;16.03;6.40;;;;;;;-145.18;100.00;60484.78;5083988;28;20500;-67
2021/07/23 02:22:49;;;;;;;12.40;6.00;;;;;;;-145.18;100.00;60484.78;5085505;28;20032;-67
2021/07/23 02:25:15;;;;;;;13.73;6.57;;;;;;;-145.18;100.00;60484.78;5083755;28;20042;-67
2021/07/23 02:27:41;;;;;;;10.70;5.63;;;;;;;-145.18;100.00;60484.78;5092121;28;20027;-67
2021/07/23 02:30:07;;;;;;;10.30;4.60;;;;;;;-145.18;100.00;60484.78;5089406;28;20066;-67
2021/07/23 02:32:33;;;;;;;8.67;4.40;;;;;;;-145.18;100.00;60484.78;5090922;28;20032;-67
2021/07/23 02:34:58;;;;;;;11.60;5.07;;;;;;;-145.18;100.00;60484.78;5089190;28;20036;-67
2021/07/23 02:37:24;;;;;;;10.87;5.63;;;;;;;-145.18;100.00;60484.78;5089368;28;20035;-67
2021/07/23 02:39:49;;;;;;;10.10;5.30;;;;;;;-145.18;100.00;60484.78;5088785;28;20198;-67
2021/07/23 02:42:15;;;;;;;12.00;5.13;;;;;;;-145.18;100.00;60484.78;5088023;28;20541;-68
2021/07/23 02:44:42;;;;;;;10.97;5.77;;;;;;;-145.18;100.00;60484.78;5087148;28;20036;-69
2021/07/23 02:47:08;;;;;;;15.17;6.83;;;;;;;-145.18;100.00;60484.78;5087167;28;20034;-71
2021/07/23 02:49:33;;;;;;;26.20;6.93;;;;;;;-145.18;100.00;60484.78;5087500;28;20076;-71
2021/07/23 02:51:59;;;;;;;14.00;6.23;;;;;;;-145.18;100.00;60484.78;5085815;28;20039;-71
2021/07/23 02:54:24;;;;;;;14.53;6.20;;;;;;;-145.18;100.00;60484.78;5089568;28;20040;-71
2021/07/23 02:56:53;;;;;;;14.50;6.90;;;;;;;-145.18;100.00;60484.78;5084604;28;20047;-71
2021/07/23 02:59:18;;;;;;;12.97;6.33;;;;;;;-145.18;100.00;60484.78;5088335;28;20054;-71
2021/07/23 03:01:44;;;;;;;18.53;7.70;;;;;;;-145.18;100.00;60484.78;5083654;28;20063;-71
2021/07/23 03:04:09;;;;;;;14.77;7.10;;;;;;;-145.18;100.00;60484.78;5086623;28;20042;-71
2021/07/23 03:06:35;;;;;;;19.90;7.63;;;;;;;-145.18;100.00;60484.78;5082857;28;20039;-71
2021/07/23 03:09:00;;;;;;;17.80;8.67;;;;;;;-145.18;100.00;60484.78;5088254;28;20027;-71
2021/07/23 03:11:29;;;;;;;16.83;7.20;;;;;;;-145.18;100.00;60484.78;5082527;28;20093;-72
2021/07/23 03:13:55;;;;;;;13.50;6.63;;;;;;;-145.18;100.00;60484.78;5086113;28;20457;-71
2021/07/23 03:16:21;;;;;;;16.43;7.13;;;;;;;-145.18;100.00;60484.78;5082547;28;20027;-71
2021/07/23 03:18:46;;;;;;;16.90;7.40;;;;;;;-145.18;100.00;60484.78;5084787;28;20028;-71
2021/07/23 03:21:12;;;;;;;12.13;6.40;;;;;;;-145.18;100.00;60484.78;5083140;28;20028;-71
2021/07/23 03:23:38;;;;;;;14.57;6.27;;;;;;;-145.18;100.00;60484.78;5084148;28;20480;-71
2021/07/23 03:26:07;;;;;;;15.20;6.80;;;;;;;-145.18;100.00;60484.78;5083165;28;20028;-71
2021/07/23 03:28:33;;;;;;;12.20;5.93;;;;;;;-145.18;100.00;60484.78;5082968;28;20035;-71
2021/07/23 03:30:58;;;;;;;13.43;6.10;;;;;;;-145.18;100.00;60484.78;5083130;28;20028;-71
2021/07/23 03:33:24;;;;;;;15.40;7.00;;;;;;;-145.18;100.00;60484.78;5091170;28;20120;-71
2021/07/23 03:35:49;;;;;;;14.53;7.10;;;;;;;-145.18;100.00;60484.78;5082579;28;20047;-71
2021/07/23 03:38:15;;;;;;;15.17;6.27;;;;;;;-145.18;100.00;60484.78;5091406;28;20032;-71
2021/07/23 03:40:40;;;;;;;14.73;6.73;;;;;;;-145.18;100.00;60484.78;5082285;28;20035;-71
2021/07/23 03:43:06;;;;;;;13.53;7.13;;;;;;;-145.18;100.00;60484.78;5086528;28;20108;-71
2021/07/23 03:45:31;;;;;;;15.60;6.03;;;;;;;-145.18;100.00;60484.78;5082158;28;20027;-71
2021/07/23 03:47:57;;;;;;;16.10;6.63;;;;;;;-145.18;100.00;60484.78;5092424;28;20073;-71
2021/07/23 03:50:22;;;;;;;13.43;6.33;;;;;;;-145.18;100.00;60484.78;5082646;28;20085;-71
2021/07/23 03:52:48;;;;;;;18.23;6.57;;;;;;;-145.18;100.00;60484.78;5091508;28;20484;-71
2021/07/23 03:55:13;;;;;;;15.13;6.70;;;;;;;-145.18;100.00;60484.78;5082324;28;20032;-71
2021/07/23 03:57:41;;;;;;;13.10;6.33;;;;;;;-145.18;100.00;60484.78;5089878;28;20062;-71
2021/07/23 04:00:08;;;;;;;12.00;5.87;;;;;;;-145.18;100.00;60484.78;5081987;28;20051;-71
2021/07/23 04:02:35;;;;;;;17.50;6.70;;;;;;;-145.18;100.00;60484.78;5081622;28;20024;-71
2021/07/23 04:05:01;;;;;;;12.60;6.40;;;;;;;-145.18;100.00;60484.78;5082390;28;20035;-71
2021/07/23 04:07:29;;;;;;;11.00;5.60;;;;;;;-145.18;100.00;60484.78;5087943;28;20468;-71
2021/07/23 04:09:55;;;;;;;13.17;5.30;;;;;;;-145.18;100.00;60484.78;5082695;28;20024;-71
2021/07/23 04:12:20;;;;;;;12.77;6.20;;;;;;;-145.18;100.00;60484.78;5085135;28;20028;-71
2021/07/23 04:14:46;;;;;;;13.37;5.93;;;;;;;-145.18;100.00;60484.78;5082238;28;20617;-71
2021/07/23 04:17:11;;;;;;;15.23;6.37;;;;;;;-145.18;100.00;60484.78;5083070;28;20135;-71
2021/07/23 04:19:37;;;;;;;10.97;5.57;;;;;;;-145.18;100.00;60484.78;5086104;28;20043;-71
2021/07/23 04:22:02;;;;;;;12.47;6.17;;;;;;;-145.18;100.00;60484.78;5086293;28;20863;-71
2021/07/23 04:24:28;;;;;;;9.93;5.80;;;;;;;-145.18;100.00;60484.78;5086195;28;20027;-71
2021/07/23 04:26:57;;;;;;;12.90;5.83;;;;;;;-145.18;100.00;60484.78;5087505;28;20055;-71
2021/07/23 04:29:22;;;;;;;12.90;5.90;;;;;;;-145.18;100.00;60484.78;5097193;28;20023;-71
2021/07/23 04:31:48;;;;;;;12.63;5.87;;;;;;;-145.18;100.00;60484.78;5086392;28;20086;-71
2021/07/23 04:34:13;;;;;;;13.47;5.73;;;;;;;-145.18;100.00;60484.78;5097122;28;20028;-71
2021/07/23 04:36:39;;;;;;;13.97;6.20;;;;;;;-145.18;100.00;60484.78;5085601;28;20024;-71
2021/07/23 04:39:05;;;;;;;12.67;6.47;;;;;;;-145.18;100.00;60484.78;5096374;28;20165;-71
2021/07/23 04:41:31;;;;;;;12.23;6.00;;;;;;;-145.18;100.00;60484.78;5084942;28;20043;-71
2021/07/23 04:43:56;;;;;;;12.77;6.27;;;;;;;-145.18;100.00;60484.78;5095661;28;20036;-71
2021/07/23 04:46:22;;;;;;;14.37;6.30;;;;;;;-145.18;100.00;60484.78;5085945;28;20412;-72
2021/07/23 04:48:47;;;;;;;15.57;6.27;;;;;;;-145.18;100.00;60484.78;5087901;28;20035;-72
2021/07/23 04:51:13;;;;;;;13.27;6.10;;;;;;;-145.18;100.00;60484.78;5086063;28;20111;-72
2021/07/23 04:53:38;;;;;;;15.07;6.97;;;;;;;-145.18;100.00;60484.78;5094021;28;20028;-72
2021/07/23 04:56:05;;;;;;;22.70;6.93;;;;;;;-145.18;100.00;60484.78;5085820;28;20032;-72
2021/07/23 04:58:31;;;;;;;13.13;6.13;;;;;;;-145.18;100.00;60484.78;5086161;28;20027;-71
2021/07/23 05:00:56;;;;;;;15.27;6.03;;;;;;;-145.18;100.00;60484.78;5085173;28;20028;-73
2021/07/23 05:03:34;;;;;;;14.20;5.63;;;;;;;-145.18;100.00;60484.78;5084214;28;20047;-73
2021/07/23 05:06:00;;;;;;;12.67;5.23;;;;;;;-145.18;100.00;60484.78;5081515;28;20683;-73
2021/07/23 05:08:27;;;;;;;12.17;5.10;;;;;;;-145.18;100.00;60484.78;5090448;28;20074;-73
2021/07/23 05:10:53;;;;;;;12.77;5.43;;;;;;;-145.18;100.00;60484.78;5083864;28;20618;-71
2021/07/23 05:13:21;;;;;;;10.30;5.07;;;;;;;-145.18;100.00;60484.78;5089047;28;20036;-71
2021/07/23 05:15:47;;;;;;;10.63;4.73;;;;;;;-145.18;100.00;60484.78;5085644;28;20102;-71
2021/07/23 05:18:13;;;;;;;9.40;4.57;;;;;;;-145.18;100.00;60484.78;5088053;28;20509;-72
2021/07/23 05:20:39;;;;;;;9.03;4.67;;;;;;;-145.18;100.00;60484.78;5085566;28;20081;-71
2021/07/23 05:23:04;;;;;;;9.17;4.03;;;;;;;-145.18;100.00;60484.78;5086557;28;20032;-71
2021/07/23 05:25:33;;;;;;;11.70;4.50;;;;;;;-145.18;100.00;60484.78;5085458;28;20036;-71
2021/07/23 05:28:00;;;;;;;9.10;4.13;;;;;;;-145.18;100.00;60484.78;5095333;28;20038;-71
2021/07/23 05:30:25;;;;;;;10.37;4.23;;;;;;;-145.18;100.00;60484.78;5088381;28;20032;-71
2021/07/23 05:32:51;;;;;;;9.13;4.00;;;;;;;-145.18;100.00;60484.78;5095046;28;20515;-71
2021/07/23 05:35:16;;;;;;;9.47;3.63;;;;;;;-145.18;100.00;60484.78;5088952;28;20028;-71
2021/07/23 05:37:42;;;;;;;8.03;3.97;;;;;;;-145.18;100.00;60484.78;5093377;28;20043;-71
2021/07/23 05:40:08;;;;;;;11.37;3.83;;;;;;;-145.18;100.00;60484.78;5088938;28;20032;-71
2021/07/23 05:42:34;;;;;;;9.97;3.97;;;;;;;-145.18;100.00;60484.78;5092287;28;20063;-71
2021/07/23 05:44:59;;;;;;;8.37;4.13;;;;;;;-145.18;100.00;60484.78;5088655;28;20411;-71
2021/07/23 05:47:25;;;;;;;7.67;3.50;;;;;;;-145.18;100.00;60484.78;5091110;28;20043;-73
2021/07/23 05:49:51;;;;;;;10.87;4.87;;;;;;;-145.18;100.00;60484.78;5088677;28;20637;-73
2021/07/23 05:52:16;;;;;;;9.97;4.17;;;;;;;-145.18;100.00;60484.78;5089671;28;20031;-73
2021/07/23 05:54:41;;;;;;;7.87;3.80;;;;;;;-145.18;100.00;60484.78;5088608;28;21358;-73
2021/07/23 05:57:07;;;;;;;9.70;4.33;;;;;;;-145.18;100.00;60484.78;5088269;28;20035;-73
2021/07/23 05:59:32;;;;;;;9.20;4.30;;;;;;;-145.18;100.00;60484.78;5087945;28;20028;-73
2021/07/23 06:01:58;;;;;;;8.70;4.30;;;;;;;-145.18;100.00;60484.78;5086742;28;20036;-73
2021/07/23 06:04:23;;;;;;;10.73;5.13;;;;;;;-145.18;100.00;60484.78;5088909;28;20088;-73
2021/07/23 06:06:49;;;;;;;12.30;4.83;;;;;;;-145.18;100.00;60484.78;5085436;28;20028;-73
2021/07/23 06:09:16;;;;;;;12.03;4.60;;;;;;;-145.18;100.00;60484.78;5088958;28;20077;-73
2021/07/23 06:11:41;;;;;;;9.30;4.67;;;;;;;-145.18;100.00;60484.78;5084660;28;20642;-73
2021/07/23 06:14:07;;;;;;;9.97;4.80;;;;;;;-145.18;100.00;60484.78;5087507;28;20190;-73
2021/07/23 06:16:32;;;;;;;8.60;4.40;;;;;;;-145.18;100.00;60484.78;5084498;28;20654;-73
2021/07/23 06:19:01;;;;;;;10.07;5.20;;;;;;;-145.18;100.00;60484.78;5085991;28;20488;-73
2021/07/23 06:21:27;;;;;;;10.03;4.53;;;;;;;-145.18;100.00;60484.78;5084244;28;20028;-73
2021/07/23 06:23:53;;;;;;;11.37;4.20;;;;;;;-145.18;100.00;60484.78;5084779;28;20161;-73
2021/07/23 06:26:19;;;;;;;10.17;4.67;;;;;;;-145.18;100.00;60484.78;5084193;28;20086;-73
2021/07/23 06:28:45;;;;;;;10.07;4.20;;;;;;;-145.18;100.00;60484.78;5084286;28;20039;-73
2021/07/23 06:31:14;;;;;;;10.23;5.00;;;;;;;-145.18;100.00;60484.78;5083970;28;20099;-73
2021/07/23 06:33:39;;;;;;;10.33;4.60;;;;;;;-145.18;100.00;60484.78;5096568;28;20035;-73
2021/07/23 06:36:05;;;;;;;10.10;4.90;;;;;;;-145.18;100.00;60484.78;5084050;28;20043;-73
2021/07/23 06:38:30;;;;;;;10.13;4.30;;;;;;;-145.18;100.00;60484.78;5095649;28;20123;-73
2021/07/23 06:40:56;;;;;;;10.83;4.63;;;;;;;-145.18;100.00;60484.78;5083406;28;20103;-72
2021/07/23 06:43:21;;;;;;;12.03;4.43;;;;;;;-145.18;100.00;60484.78;5094316;28;20044;-72
2021/07/23 06:45:54;;;;;;;10.80;5.03;;;;;;;-145.18;100.00;60484.78;5083778;28;20028;-72
2021/07/23 06:48:20;;;;;;;13.53;5.17;;;;;;;-145.18;100.00;60484.78;5092991;28;20043;-72
2021/07/23 06:50:45;;;;;;;9.73;4.53;;;;;;;-145.18;100.00;60484.78;5083671;28;20623;-72
2021/07/23 06:53:11;;;;;;;10.47;4.87;;;;;;;-145.18;100.00;60484.78;5091365;28;20097;-72
2021/07/23 06:55:36;;;;;;;15.00;5.47;;;;;;;-145.18;100.00;60484.78;5083525;28;20062;-72
2021/07/23 06:58:05;;;;;;;11.30;4.97;;;;;;;-145.18;100.00;60484.78;5090133;28;20036;-72
2021/07/23 07:00:30;;;;;;;11.87;5.07;;;;;;;-145.18;100.00;60484.78;5083688;28;20051;-72
2021/07/23 07:02:56;;;;;;;18.90;5.50;;;;;;;-145.18;100.00;60484.78;5089182;28;20699;-72
2021/07/23 07:05:24;;;;;;;12.90;5.40;;;;;;;-145.18;100.00;60484.78;5083295;28;20644;-72
2021/07/23 07:07:49;;;;;;;11.77;5.47;;;;;;;-145.18;100.00;60484.78;5088064;28;20031;-72
2021/07/23 07:10:15;;;;;;;13.37;5.57;;;;;;;-145.18;100.00;60484.78;5083592;28;20100;-72
2021/07/23 07:12:44;;;;;;;12.67;5.27;;;;;;;-145.18;100.00;60484.78;5086615;28;20035;-72
2021/07/23 07:15:10;;;;;;;11.43;5.30;;;;;;;-145.18;100.00;60484.78;5083041;28;20123;-72
2021/07/23 07:17:35;;;;;;;11.37;5.40;;;;;;;-145.18;100.00;60484.78;5085536;28;20115;-72
2021/07/23 07:20:01;;;;;;;17.57;6.17;;;;;;;-145.18;100.00;60484.78;5083143;28;20024;-72
2021/07/23 07:22:27;;;;;;;11.57;5.40;;;;;;;-145.18;100.00;60484.78;5083808;28;20743;-72
2021/07/23 07:24:53;;;;;;;14.37;5.90;;;;;;;-145.18;100.00;60484.78;5083162;28;20051;-72
2021/07/23 07:27:19;;;;;;;11.07;5.13;;;;;;;-145.18;100.00;60484.78;5088007;28;20034;-72
2021/07/23 07:29:45;;;;;;;10.67;4.80;;;;;;;-145.18;100.00;60484.78;5091254;28;20027;-72
2021/07/23 07:32:10;;;;;;;12.87;5.77;;;;;;;-145.18;100.00;60484.78;5086874;28;20110;-72
2021/07/23 07:34:37;;;;;;;11.10;5.60;;;;;;;-145.18;100.00;60484.78;5091324;28;20050;-72
2021/07/23 07:37:03;;;;;;;12.03;5.30;;;;;;;-145.18;100.00;60484.78;5085864;28;20476;-72
2021/07/23 07:39:29;;;;;;;11.43;5.20;;;;;;;-145.18;100.00;60484.78;5091095;28;20035;-72
2021/07/23 07:41:55;;;;;;;11.17;4.40;;;;;;;-145.18;100.00;60484.78;5084566;28;20031;-72
2021/07/23 07:44:20;;;;;;;11.50;4.63;;;;;;;-145.18;100.00;60484.78;5091501;28;20098;-72
2021/07/23 07:46:46;;;;;;;11.63;5.23;;;;;;;-145.18;100.00;60484.78;5083391;28;20035;-72
2021/07/23 07:49:11;;;;;;;10.00;4.10;;;;;;;-145.18;100.00;60484.78;5091600;28;20020;-71
2021/07/23 07:51:37;;;;;;;10.17;4.87;;;;;;;-145.18;100.00;60484.78;5081860;28;20032;-72
2021/07/23 07:54:02;;;;;;;10.50;4.47;;;;;;;-145.18;100.00;60484.78;5085520;28;20158;-72
2021/07/23 07:56:28;;;;;;;13.63;5.10;;;;;;;-145.18;100.00;60484.78;5082727;28;20034;-72
2021/07/23 07:58:53;;;;;;;10.30;4.60;;;;;;;-145.18;100.00;60484.78;5089597;28;20586;-72
2021/07/23 08:01:19;;;;;;;8.43;4.13;;;;;;;-145.18;100.00;60484.78;5082706;28;20024;-71
2021/07/23 08:03:44;;;;;;;12.43;4.17;;;;;;;-145.18;100.00;60484.78;5088653;28;20067;-71
2021/07/23 08:09:00;;;;;;;11.07;4.13;;;;;;;-145.18;100.00;60484.78;5087372;28;20599;-72
2021/07/23 08:11:26;;;;;;;9.40;4.77;;;;;;;-145.18;100.00;60484.78;5082651;28;20042;-70
2021/07/23 08:13:51;;;;;;;10.60;4.17;;;;;;;-145.18;100.00;60484.78;5085428;28;20048;-70
2021/07/23 08:16:16;;;;;;;9.70;4.33;;;;;;;-145.18;100.00;60484.78;5082690;28;20028;-70
2021/07/23 08:18:42;;;;;;;11.00;4.20;;;;;;;-145.18;100.00;60484.78;5084957;28;20112;-70
2021/07/23 08:21:07;;;;;;;9.60;4.07;;;;;;;-145.18;100.00;60484.78;5082412;28;20024;-70
2021/07/23 08:23:35;;;;;;;10.82;4.15;;;;;;;-145.18;100.00;60484.78;5083818;28;20036;-70
2021/07/23 08:26:01;;;;;;;10.63;4.38;;;;;;;-145.18;100.00;60484.78;5082664;28;20668;-70
2021/07/23 08:28:27;;;;;;;9.35;4.30;;;;;;;-145.18;100.00;60484.78;5095833;28;20050;-70
2021/07/23 08:30:53;;;;;;;10.25;4.43;;;;;;;-145.18;100.00;60484.78;5082448;28;20024;-70
2021/07/23 08:33:22;;;;;;;11.00;4.55;;;;;;;-145.18;100.00;60484.78;5094396;28;20483;-70
2021/07/23 08:35:48;;;;;;;9.60;3.85;;;;;;;-145.18;100.00;60484.78;5082276;28;20020;-70
2021/07/23 08:38:14;;;;;;;9.13;3.88;;;;;;;-145.18;100.00;60484.78;5093234;28;20038;-70
2021/07/23 08:40:39;;;;;;;8.38;4.00;;;;;;;-145.18;100.00;60484.78;5082167;28;20028;-70
2021/07/23 08:43:05;;;;;;;8.77;4.30;;;;;;;-145.18;100.00;60484.78;5092185;28;20031;-70
2021/07/23 08:45:30;;;;;;;11.30;3.97;;;;;;;-145.18;100.00;60484.78;5082346;28;20479;-70
2021/07/23 08:47:57;;;;;;;8.48;3.97;;;;;;;-145.18;100.00;60484.78;5090567;28;20040;-70
2021/07/23 08:50:24;;;;;;;10.20;4.22;;;;;;;-145.18;100.00;60484.78;5082115;28;20093;-69
2021/07/23 08:52:56;;;;;;;7.95;4.20;;;;;;;-145.18;100.00;60484.78;5090132;28;20069;-69
2021/07/23 08:55:23;;;;;;;11.48;4.63;;;;;;;-145.18;100.00;60484.78;5081948;28;20024;-69
2021/07/23 08:57:49;;;;;;;9.98;4.45;;;;;;;-145.18;100.00;60484.78;5088566;28;20132;-69
2021/07/23 09:00:21;;;;;;;8.65;4.35;;;;;;;-145.18;100.00;60484.78;5081880;28;20032;-69
2021/07/23 09:03:03;;;;;;;9.35;4.10;;;;;;;-145.18;100.00;60484.78;5087995;28;20048;-69
2021/07/23 09:05:31;;;;;;;9.00;4.20;;;;;;;-145.18;100.00;60484.78;5085554;28;20027;-69
2021/07/23 09:07:59;;;;;;;12.70;4.18;;;;;;;-145.18;100.00;60484.78;5089858;28;20031;-69
2021/07/23 09:10:27;;;;;;;10.00;4.25;;;;;;;-145.18;100.00;60484.78;5085533;28;20101;-69
2021/07/23 09:12:54;;;;;;;9.27;4.47;;;;;;;-145.18;100.00;60484.78;5088741;28;20093;-69
2021/07/23 09:15:24;;;;;;;10.68;4.78;;;;;;;-145.18;100.00;60484.78;5085079;28;20047;-69
2021/07/23 09:17:51;;;;;;;9.88;4.60;;;;;;;-145.18;100.00;60484.78;5087738;28;20036;-69
2021/07/23 09:20:22;;;;;;;8.95;4.32;;;;;;;-145.18;100.00;60484.78;5085432;28;20024;-69
2021/07/23 09:22:50;;;;;;;8.30;4.22;;;;;;;-145.18;100.00;60484.78;5086737;28;20051;-69
2021/07/23 09:25:31;;;;;;;10.55;4.95;;;;;;;-145.18;100.00;60484.78;5085188;28;20027;-69
2021/07/23 09:27:57;;;;;;;10.20;4.97;;;;;;;-145.18;100.00;60484.78;5085169;28;20107;-69
2021/07/23 09:30:40;;;;;;;8.50;4.30;;;;;;;-145.18;100.00;60484.78;5085138;28;20240;-69
2021/07/23 09:33:05;;;;;;;10.18;4.70;;;;;;;-145.18;100.00;60484.78;5096628;28;20039;-70
2021/07/23 09:35:31;;;;;;;11.23;5.07;;;;;;;-145.18;100.00;60484.78;5086274;28;20024;-69
2021/07/23 09:37:58;;;;;;;10.32;5.03;;;;;;;-145.18;100.00;60484.78;5095233;28;20027;-69
2021/07/23 09:40:38;;;;;;;11.60;5.20;;;;;;;-145.18;100.00;60484.78;5085780;28;20621;-69
2021/07/23 09:43:04;;;;;;;18.75;5.68;;;;;;;-145.18;100.00;60484.78;5095469;28;20031;-69
2021/07/23 09:45:33;;;;;;;10.38;5.50;;;;;;;-145.18;100.00;60484.78;5085106;28;20028;-69
2021/07/23 09:48:13;;;;;;;13.43;5.40;;;;;;;-145.18;100.00;60484.78;5094168;28;20081;-69
2021/07/23 09:50:43;;;;;;;13.43;6.13;;;;;;;-145.18;100.00;60484.78;5084860;28;20034;-69
2021/07/23 09:53:12;;;;;;;11.07;4.63;;;;;;;-145.18;100.00;60484.78;5092881;28;20028;-69
2021/07/23 09:55:39;;;;;;;16.25;5.60;;;;;;;-145.18;100.00;60484.78;5084505;28;20027;-69
2021/07/23 09:58:06;;;;;;;10.68;5.20;;;;;;;-145.18;100.00;60484.78;5091727;28;20047;-69
2021/07/23 10:00:36;;;;;;;9.82;5.13;;;;;;;-145.18;100.00;60484.78;5084521;28;20099;-69
2021/07/23 10:03:04;;;;;;;10.00;5.07;;;;;;;-145.18;100.00;60484.78;5086611;28;20948;-69
2021/07/23 10:05:34;;;;;;;8.77;5.22;;;;;;;-145.18;100.00;60484.78;5084322;28;20024;-69
2021/07/23 10:08:06;;;;;;;12.48;5.25;;;;;;;-145.18;100.00;60484.78;5089315;28;20703;-69
2021/07/23 10:10:32;;;;;;;9.77;4.82;;;;;;;-145.18;100.00;60484.78;5084374;28;20107;-69
2021/07/23 10:12:59;;;;;;;9.90;5.18;;;;;;;-145.18;100.00;60484.78;5087485;28;20524;-69
2021/07/23 10:15:25;;;;;;;10.25;4.90;;;;;;;-145.18;100.00;60484.78;5083198;28;20141;-69
2021/07/23 10:17:53;;;;;;;10.50;5.18;;;;;;;-145.18;100.00;60484.78;5086036;28;20048;-69
2021/07/23 10:20:19;;;;;;;12.35;5.07;;;;;;;-145.18;100.00;60484.78;5084249;28;20028;-69
2021/07/23 10:22:50;;;;;;;8.82;4.88;;;;;;;-145.18;100.00;60484.78;5084612;28;20036;-69
2021/07/23 10:25:16;;;;;;;11.13;5.28;;;;;;;-145.18;100.00;60484.78;5084439;28;20097;-69
2021/07/23 10:27:45;;;;;;;14.32;5.25;;;;;;;-145.18;100.00;60484.78;5092318;28;20027;-69
2021/07/23 10:30:36;;;;;;;9.73;5.00;;;;;;;-145.18;100.00;60484.78;5088692;28;20401;-69
2021/07/23 10:33:03;;;;;;;11.38;4.85;;;;;;;-145.18;100.00;60484.78;5094964;28;20084;-69
2021/07/23 10:35:31;;;;;;;7.97;4.35;;;;;;;-145.18;100.00;60484.78;5084920;28;20062;-69
2021/07/23 10:37:57;;;;;;;10.90;5.40;;;;;;;-145.18;100.00;60484.78;5094137;28;20041;-69
2021/07/23 10:40:34;;;;;;;9.07;4.72;;;;;;;-145.18;100.00;60484.78;5084869;28;20120;-69
2021/07/23 10:43:00;;;;;;;9.40;4.28;;;;;;;-145.18;100.00;60484.78;5094373;28;20046;-69
2021/07/23 10:45:51;;;;;;;10.80;4.57;;;;;;;-145.18;100.00;60484.78;5083729;28;20403;-69
2021/07/23 10:48:49;;;;;;;8.30;4.00;;;;;;;-145.18;100.00;60484.78;5089086;28;20420;-69
2021/07/23 10:51:50;;;;;;;8.73;4.10;;;;;;;-145.18;100.00;60484.78;5083507;28;20031;-69
2021/07/23 10:54:24;;;;;;;9.18;4.30;;;;;;;-145.18;100.00;60484.78;5000547;28;20056;-69
2021/07/23 10:57:18;;;;;;;9.77;4.53;;;;;;;-145.18;100.00;60484.78;4988615;28;20050;-69
2021/07/23 10:59:49;;;;;;;9.77;4.18;;;;;;;-145.18;100.00;60484.78;4995089;28;20168;-69
2021/07/23 11:02:43;;;;;;;7.83;4.07;;;;;;;-145.18;100.00;60484.78;5004807;28;20037;-69
2021/07/23 11:05:11;;;;;;;10.63;4.47;;;;;;;-145.18;100.00;60484.78;4995262;28;20038;-69
2021/07/23 11:07:38;;;;;;;6.75;3.78;;;;;;;-145.18;100.00;60484.78;5005646;28;20107;-69